sensor_id;sensor_type;location;lat;lon;timestamp;pressure;altitude;pressure_sealevel;temperature;humidity
49102;BME280;34913;47.520;19.186;2023-06-22T00:01:58;100054.69;;;21.26;100.00
49102;BME280;34913;47.520;19.186;2023-06-22T00:04:24;100074.69;;;21.31;100.00
49102;BME280;34913;47.520;19.186;2023-06-22T00:06:50;100102.34;;;21.33;100.00
49102;BME280;34913;47.520;19.186;2023-06-22T00:09:15;100094.34;;;21.25;100.00
49102;BME280;34913;47.520;19.186;2023-06-22T00:11:41;100092.53;;;21.32;100.00
49102;BME280;34913;47.520;19.186;2023-06-22T00:14:06;100098.59;;;21.34;100.00
49102;BME280;34913;47.520;19.186;2023-06-22T00:16:33;100108.84;;;21.24;100.00
49102;BME280;34913;47.520;19.186;2023-06-22T00:18:58;100107.38;;;21.22;100.00
49102;BME280;34913;47.520;19.186;2023-06-22T00:21:29;100117.53;;;21.19;100.00
49102;BME280;34913;47.520;19.186;2023-06-22T00:23:55;100106.47;;;21.14;100.00
49102;BME280;34913;47.520;19.186;2023-06-22T00:26:21;100103.41;;;21.17;100.00
49102;BME280;34913;47.520;19.186;2023-06-22T00:28:47;100104.81;;;21.13;100.00
49102;BME280;34913;47.520;19.186;2023-06-22T00:31:13;100099.00;;;21.16;100.00
49102;BME280;34913;47.520;19.186;2023-06-22T00:33:38;100103.97;;;21.13;100.00
49102;BME280;34913;47.520;19.186;2023-06-22T00:36:04;100092.53;;;21.11;100.00
49102;BME280;34913;47.520;19.186;2023-06-22T00:38:30;100102.66;;;21.09;100.00
49102;BME280;34913;47.520;19.186;2023-06-22T00:40:55;100090.41;;;21.06;100.00
49102;BME280;34913;47.520;19.186;2023-06-22T00:43:21;100091.25;;;21.07;100.00
49102;BME280;34913;47.520;19.186;2023-06-22T00:45:46;100084.38;;;21.04;100.00
49102;BME280;34913;47.520;19.186;2023-06-22T00:48:13;100096.84;;;21.05;100.00
49102;BME280;34913;47.520;19.186;2023-06-22T00:50:40;100099.94;;;21.02;100.00
49102;BME280;34913;47.520;19.186;2023-06-22T00:53:07;100100.94;;;21.01;100.00
49102;BME280;34913;47.520;19.186;2023-06-22T00:55:41;100105.97;;;21.04;100.00
49102;BME280;34913;47.520;19.186;2023-06-22T00:58:09;100101.78;;;21.02;100.00
49102;BME280;34913;47.520;19.186;2023-06-22T01:00:36;100094.53;;;21.02;100.00
49102;BME280;34913;47.520;19.186;2023-06-22T01:03:03;100091.63;;;21.04;100.00
49102;BME280;34913;47.520;19.186;2023-06-22T01:05:28;100081.88;;;21.03;100.00
49102;BME280;34913;47.520;19.186;2023-06-22T01:08:15;100091.44;;;21.05;100.00
49102;BME280;34913;47.520;19.186;2023-06-22T01:10:58;100099.94;;;21.02;100.00
49102;BME280;34913;47.520;19.186;2023-06-22T01:13:40;100104.84;;;20.99;100.00
49102;BME280;34913;47.520;19.186;2023-06-22T01:18:41;100111.69;;;20.95;100.00
49102;BME280;34913;47.520;19.186;2023-06-22T01:21:12;100104.41;;;20.95;100.00
49102;BME280;34913;47.520;19.186;2023-06-22T01:26:18;100104.38;;;21.10;100.00
49102;BME280;34913;47.520;19.186;2023-06-22T01:28:49;100104.94;;;21.05;100.00
49102;BME280;34913;47.520;19.186;2023-06-22T01:31:20;100102.28;;;20.90;100.00
49102;BME280;34913;47.520;19.186;2023-06-22T01:33:51;100103.03;;;20.84;100.00
49102;BME280;34913;47.520;19.186;2023-06-22T01:36:18;100115.97;;;20.89;100.00
49102;BME280;34913;47.520;19.186;2023-06-22T01:38:45;100112.16;;;20.83;100.00
49102;BME280;34913;47.520;19.186;2023-06-22T01:41:12;100107.34;;;20.79;100.00
49102;BME280;34913;47.520;19.186;2023-06-22T01:43:38;100101.97;;;20.79;100.00
49102;BME280;34913;47.520;19.186;2023-06-22T01:46:04;100095.53;;;20.80;100.00
49102;BME280;34913;47.520;19.186;2023-06-22T01:48:30;100098.31;;;20.86;100.00
49102;BME280;34913;47.520;19.186;2023-06-22T01:50:56;100099.16;;;20.87;100.00
49102;BME280;34913;47.520;19.186;2023-06-22T01:53:22;100094.78;;;20.86;100.00
49102;BME280;34913;47.520;19.186;2023-06-22T01:55:48;100086.69;;;20.86;100.00
49102;BME280;34913;47.520;19.186;2023-06-22T01:58:13;100092.84;;;20.80;100.00
49102;BME280;34913;47.520;19.186;2023-06-22T02:00:40;100094.94;;;20.84;100.00
49102;BME280;34913;47.520;19.186;2023-06-22T02:03:15;100096.81;;;20.84;100.00
49102;BME280;34913;47.520;19.186;2023-06-22T02:05:54;100097.13;;;20.74;100.00
49102;BME280;34913;47.520;19.186;2023-06-22T02:08:29;100107.47;;;20.71;100.00
49102;BME280;34913;47.520;19.186;2023-06-22T02:10:57;100109.88;;;20.66;100.00
49102;BME280;34913;47.520;19.186;2023-06-22T02:13:25;100100.56;;;20.68;100.00
49102;BME280;34913;47.520;19.186;2023-06-22T02:15:50;100104.09;;;20.69;100.00
49102;BME280;34913;47.520;19.186;2023-06-22T02:18:16;100109.13;;;20.72;100.00
49102;BME280;34913;47.520;19.186;2023-06-22T02:20:42;100108.94;;;20.73;100.00
49102;BME280;34913;47.520;19.186;2023-06-22T02:23:08;100103.47;;;20.67;100.00
49102;BME280;34913;47.520;19.186;2023-06-22T02:25:34;100099.75;;;20.68;100.00
49102;BME280;34913;47.520;19.186;2023-06-22T02:27:59;100104.09;;;20.69;100.00
49102;BME280;34913;47.520;19.186;2023-06-22T02:30:37;100100.56;;;20.68;100.00
49102;BME280;34913;47.520;19.186;2023-06-22T02:33:02;100105.59;;;20.71;100.00
49102;BME280;34913;47.520;19.186;2023-06-22T02:35:28;100113.22;;;20.68;100.00
49102;BME280;34913;47.520;19.186;2023-06-22T02:37:58;100102.63;;;20.66;100.00
49102;BME280;34913;47.520;19.186;2023-06-22T02:40:24;100122.94;;;20.62;100.00
49102;BME280;34913;47.520;19.186;2023-06-22T02:42:50;100107.94;;;20.59;100.00
49102;BME280;34913;47.520;19.186;2023-06-22T02:45:15;100107.31;;;20.57;100.00
49102;BME280;34913;47.520;19.186;2023-06-22T02:47:41;100120.41;;;20.60;100.00
49102;BME280;34913;47.520;19.186;2023-06-22T02:50:07;100127.84;;;20.58;100.00
49102;BME280;34913;47.520;19.186;2023-06-22T02:52:32;100118.38;;;20.62;100.00
49102;BME280;34913;47.520;19.186;2023-06-22T02:54:57;100121.22;;;20.61;100.00
49102;BME280;34913;47.520;19.186;2023-06-22T02:57:23;100114.16;;;20.60;100.00
49102;BME280;34913;47.520;19.186;2023-06-22T02:59:48;100121.72;;;20.65;100.00
49102;BME280;34913;47.520;19.186;2023-06-22T03:02:14;100127.47;;;20.61;100.00
49102;BME280;34913;47.520;19.186;2023-06-22T03:04:39;100121.22;;;20.61;100.00
49102;BME280;34913;47.520;19.186;2023-06-22T03:07:04;100120.03;;;20.63;100.00
49102;BME280;34913;47.520;19.186;2023-06-22T03:09:30;100122.25;;;20.60;100.00
49102;BME280;34913;47.520;19.186;2023-06-22T03:11:55;100117.53;;;20.62;100.00
49102;BME280;34913;47.520;19.186;2023-06-22T03:14:21;100124.97;;;20.60;100.00
49102;BME280;34913;47.520;19.186;2023-06-22T03:16:46;100129.06;;;20.56;100.00
49102;BME280;34913;47.520;19.186;2023-06-22T03:19:12;100128.03;;;20.57;100.00
49102;BME280;34913;47.520;19.186;2023-06-22T03:21:38;100120.41;;;20.60;100.00
49102;BME280;34913;47.520;19.186;2023-06-22T03:24:05;100117.53;;;20.62;100.00
49102;BME280;34913;47.520;19.186;2023-06-22T03:26:30;100121.44;;;20.59;100.00
49102;BME280;34913;47.520;19.186;2023-06-22T03:28:56;100122.94;;;20.62;100.00
49102;BME280;34913;47.520;19.186;2023-06-22T03:31:22;100117.06;;;20.58;100.00
49102;BME280;34913;47.520;19.186;2023-06-22T03:33:48;100118.28;;;20.56;100.00
49102;BME280;34913;47.520;19.186;2023-06-22T03:36:17;100123.66;;;20.71;100.00
49102;BME280;34913;47.520;19.186;2023-06-22T03:38:48;100122.16;;;20.68;100.00
49102;BME280;34913;47.520;19.186;2023-06-22T03:41:13;100113.97;;;20.61;100.00
49102;BME280;34913;47.520;19.186;2023-06-22T03:43:39;100117.69;;;20.60;100.00
49102;BME280;34913;47.520;19.186;2023-06-22T03:46:05;100118.91;;;20.58;100.00
49102;BME280;34913;47.520;19.186;2023-06-22T03:48:30;100119.94;;;20.57;100.00
49102;BME280;34913;47.520;19.186;2023-06-22T03:50:55;100115.84;;;20.61;100.00
49102;BME280;34913;47.520;19.186;2023-06-22T03:53:21;100112.16;;;20.62;100.00
49102;BME280;34913;47.520;19.186;2023-06-22T03:55:51;100116.75;;;20.68;100.00
49102;BME280;34913;47.520;19.186;2023-06-22T03:58:18;100115.16;;;20.74;100.00
49102;BME280;34913;47.520;19.186;2023-06-22T04:00:45;100120.19;;;20.77;100.00
49102;BME280;34913;47.520;19.186;2023-06-22T04:03:11;100120.66;;;20.80;100.00
49102;BME280;34913;47.520;19.186;2023-06-22T04:05:38;100132.16;;;20.89;100.00
49102;BME280;34913;47.520;19.186;2023-06-22T04:08:04;100133.31;;;21.01;100.00
49102;BME280;34913;47.520;19.186;2023-06-22T04:10:30;100134.63;;;21.05;100.00
49102;BME280;34913;47.520;19.186;2023-06-22T04:12:55;100139.97;;;21.20;100.00
49102;BME280;34913;47.520;19.186;2023-06-22T04:15:21;100139.38;;;21.25;100.00
49102;BME280;34913;47.520;19.186;2023-06-22T04:17:46;100144.09;;;21.37;100.00
49102;BME280;34913;47.520;19.186;2023-06-22T04:20:12;100136.72;;;21.46;100.00
49102;BME280;34913;47.520;19.186;2023-06-22T04:22:37;100138.25;;;21.55;100.00
49102;BME280;34913;47.520;19.186;2023-06-22T04:25:06;100129.56;;;21.60;100.00
49102;BME280;34913;47.520;19.186;2023-06-22T04:27:33;100138.78;;;21.65;100.00
49102;BME280;34913;47.520;19.186;2023-06-22T04:30:03;100159.78;;;21.70;100.00
49102;BME280;34913;47.520;19.186;2023-06-22T04:32:28;100149.44;;;21.73;100.00
49102;BME280;34913;47.520;19.186;2023-06-22T04:34:54;100156.31;;;21.76;100.00
49102;BME280;34913;47.520;19.186;2023-06-22T04:37:19;100151.53;;;21.78;100.00
49102;BME280;34913;47.520;19.186;2023-06-22T04:39:44;100146.81;;;21.87;100.00
49102;BME280;34913;47.520;19.186;2023-06-22T04:42:11;100147.06;;;21.92;100.00
49102;BME280;34913;47.520;19.186;2023-06-22T04:44:36;100149.41;;;22.01;99.74
49102;BME280;34913;47.520;19.186;2023-06-22T04:47:02;100137.06;;;22.14;98.98
49102;BME280;34913;47.520;19.186;2023-06-22T04:49:34;100137.16;;;22.34;97.27
49102;BME280;34913;47.520;19.186;2023-06-22T04:52:04;100146.84;;;22.56;94.95
49102;BME280;34913;47.520;19.186;2023-06-22T04:54:30;100148.59;;;22.70;95.54
49102;BME280;34913;47.520;19.186;2023-06-22T04:56:59;100146.53;;;22.79;93.49
49102;BME280;34913;47.520;19.186;2023-06-22T04:59:27;100156.09;;;22.75;92.39
49102;BME280;34913;47.520;19.186;2023-06-22T05:01:57;100159.44;;;22.77;90.87
49102;BME280;34913;47.520;19.186;2023-06-22T05:04:23;100153.72;;;22.93;90.32
49102;BME280;34913;47.520;19.186;2023-06-22T05:06:50;100156.41;;;22.93;92.39
49102;BME280;34913;47.520;19.186;2023-06-22T05:09:16;100155.56;;;22.86;92.55
49102;BME280;34913;47.520;19.186;2023-06-22T05:11:42;100158.06;;;22.88;89.83
49102;BME280;34913;47.520;19.186;2023-06-22T05:14:08;100165.97;;;22.89;89.87
49102;BME280;34913;47.520;19.186;2023-06-22T05:16:33;100160.00;;;23.07;90.56
49102;BME280;34913;47.520;19.186;2023-06-22T05:18:59;100165.03;;;23.30;90.44
49102;BME280;34913;47.520;19.186;2023-06-22T05:21:25;100173.41;;;23.48;90.24
49102;BME280;34913;47.520;19.186;2023-06-22T05:23:55;100172.63;;;23.67;91.09
49102;BME280;34913;47.520;19.186;2023-06-22T05:26:21;100177.84;;;23.82;88.98
49102;BME280;34913;47.520;19.186;2023-06-22T05:28:47;100184.09;;;23.96;85.17
49102;BME280;34913;47.520;19.186;2023-06-22T05:31:16;100183.66;;;24.06;83.09
49102;BME280;34913;47.520;19.186;2023-06-22T05:33:43;100185.72;;;24.30;82.73
49102;BME280;34913;47.520;19.186;2023-06-22T05:36:09;100189.25;;;24.57;83.75
49102;BME280;34913;47.520;19.186;2023-06-22T05:38:36;100190.47;;;24.61;82.09
49102;BME280;34913;47.520;19.186;2023-06-22T05:41:01;100198.09;;;24.91;78.98
49102;BME280;34913;47.520;19.186;2023-06-22T05:43:27;100205.06;;;25.25;76.65
49102;BME280;34913;47.520;19.186;2023-06-22T05:45:52;100201.56;;;25.49;77.11
49102;BME280;34913;47.520;19.186;2023-06-22T05:48:17;100205.16;;;25.43;77.76
49102;BME280;34913;47.520;19.186;2023-06-22T05:50:43;100217.81;;;25.63;76.33
49102;BME280;34913;47.520;19.186;2023-06-22T05:53:08;100217.34;;;25.97;75.56
49102;BME280;34913;47.520;19.186;2023-06-22T05:55:34;100224.63;;;26.28;71.94
49102;BME280;34913;47.520;19.186;2023-06-22T05:57:59;100216.06;;;26.50;71.43
49102;BME280;34913;47.520;19.186;2023-06-22T06:00:24;100224.47;;;26.85;74.76
49102;BME280;34913;47.520;19.186;2023-06-22T06:02:50;100219.31;;;27.13;71.99
49102;BME280;34913;47.520;19.186;2023-06-22T06:05:15;100219.50;;;27.30;69.40
49102;BME280;34913;47.520;19.186;2023-06-22T06:07:45;100223.66;;;27.33;69.36
49102;BME280;34913;47.520;19.186;2023-06-22T06:10:11;100221.81;;;27.45;70.77
49102;BME280;34913;47.520;19.186;2023-06-22T06:12:37;100219.09;;;27.45;68.89
49102;BME280;34913;47.520;19.186;2023-06-22T06:15:04;100220.53;;;27.47;68.32
49102;BME280;34913;47.520;19.186;2023-06-22T06:17:30;100217.13;;;27.64;68.69
49102;BME280;34913;47.520;19.186;2023-06-22T06:19:55;100219.44;;;27.78;68.50
49102;BME280;34913;47.520;19.186;2023-06-22T06:22:20;100221.16;;;27.91;65.71
49102;BME280;34913;47.520;19.186;2023-06-22T06:24:48;100214.66;;;28.16;65.58
49102;BME280;34913;47.520;19.186;2023-06-22T06:27:13;100223.56;;;28.34;64.29
49102;BME280;34913;47.520;19.186;2023-06-22T06:29:39;100209.56;;;28.31;63.58
49102;BME280;34913;47.520;19.186;2023-06-22T06:32:04;100213.00;;;28.50;62.87
49102;BME280;34913;47.520;19.186;2023-06-22T06:34:30;100216.31;;;28.63;63.10
49102;BME280;34913;47.520;19.186;2023-06-22T06:36:55;100206.88;;;28.83;62.89
49102;BME280;34913;47.520;19.186;2023-06-22T06:39:20;100212.22;;;29.01;61.60
49102;BME280;34913;47.520;19.186;2023-06-22T06:41:46;100211.84;;;29.09;61.02
49102;BME280;34913;47.520;19.186;2023-06-22T06:44:11;100215.88;;;29.35;60.28
49102;BME280;34913;47.520;19.186;2023-06-22T06:46:37;100207.03;;;29.57;59.80
49102;BME280;34913;47.520;19.186;2023-06-22T06:49:03;100208.69;;;29.74;55.31
49102;BME280;34913;47.520;19.186;2023-06-22T06:51:29;100208.78;;;29.80;55.25
49102;BME280;34913;47.520;19.186;2023-06-22T06:53:54;100211.59;;;29.68;52.80
49102;BME280;34913;47.520;19.186;2023-06-22T06:56:20;100206.50;;;29.60;52.01
49102;BME280;34913;47.520;19.186;2023-06-22T06:58:45;100208.53;;;29.64;56.89
49102;BME280;34913;47.520;19.186;2023-06-22T07:01:11;100207.19;;;30.00;53.85
49102;BME280;34913;47.520;19.186;2023-06-22T07:03:37;100207.03;;;30.24;55.75
49102;BME280;34913;47.520;19.186;2023-06-22T07:06:03;100209.06;;;30.12;53.04
49102;BME280;34913;47.520;19.186;2023-06-22T07:08:29;100203.47;;;30.07;52.75
49102;BME280;34913;47.520;19.186;2023-06-22T07:10:54;100199.56;;;29.86;53.78
49102;BME280;34913;47.520;19.186;2023-06-22T07:13:20;100198.06;;;29.78;53.70
49102;BME280;34913;47.520;19.186;2023-06-22T07:15:45;100193.78;;;29.82;53.98
49102;BME280;34913;47.520;19.186;2023-06-22T07:18:10;100194.28;;;29.96;52.88
49102;BME280;34913;47.520;19.186;2023-06-22T07:20:36;100197.41;;;30.05;53.15
49102;BME280;34913;47.520;19.186;2023-06-22T07:23:01;100197.00;;;30.29;49.84
49102;BME280;34913;47.520;19.186;2023-06-22T07:25:27;100190.47;;;30.52;48.42
49102;BME280;34913;47.520;19.186;2023-06-22T07:28:04;100193.59;;;30.61;48.13
49102;BME280;34913;47.520;19.186;2023-06-22T07:30:30;100187.66;;;30.86;48.06
49102;BME280;34913;47.520;19.186;2023-06-22T07:32:57;100193.56;;;30.78;46.68
49102;BME280;34913;47.520;19.186;2023-06-22T07:35:23;100189.75;;;31.01;47.79
49102;BME280;34913;47.520;19.186;2023-06-22T07:37:48;100199.16;;;31.10;45.77
49102;BME280;34913;47.520;19.186;2023-06-22T07:40:13;100194.03;;;31.40;42.74
49102;BME280;34913;47.520;19.186;2023-06-22T07:42:39;100203.34;;;31.66;44.63
49102;BME280;34913;47.520;19.186;2023-06-22T07:45:05;100196.72;;;31.62;45.21
49102;BME280;34913;47.520;19.186;2023-06-22T07:47:33;100196.53;;;31.74;44.92
49102;BME280;34913;47.520;19.186;2023-06-22T07:50:00;100190.13;;;31.90;41.14
49102;BME280;34913;47.520;19.186;2023-06-22T07:52:28;100192.97;;;32.06;43.50
49102;BME280;34913;47.520;19.186;2023-06-22T07:54:53;100192.69;;;32.02;41.92
49102;BME280;34913;47.520;19.186;2023-06-22T07:57:19;100192.97;;;32.06;44.13
49102;BME280;34913;47.520;19.186;2023-06-22T07:59:45;100185.72;;;32.27;41.33
49102;BME280;34913;47.520;19.186;2023-06-22T08:02:11;100187.38;;;32.28;41.42
49102;BME280;34913;47.520;19.186;2023-06-22T08:04:37;100190.13;;;32.28;43.13
49102;BME280;34913;47.520;19.186;2023-06-22T08:07:02;100184.03;;;32.20;42.00
49102;BME280;34913;47.520;19.186;2023-06-22T08:09:31;100176.88;;;32.19;43.91
49102;BME280;34913;47.520;19.186;2023-06-22T08:11:57;100181.16;;;32.42;41.26
49102;BME280;34913;47.520;19.186;2023-06-22T08:14:26;100181.75;;;32.55;41.67
49102;BME280;34913;47.520;19.186;2023-06-22T08:16:52;100179.84;;;32.50;42.66
49102;BME280;34913;47.520;19.186;2023-06-22T08:19:17;100180.97;;;32.59;42.25
49102;BME280;34913;47.520;19.186;2023-06-22T08:21:43;100174.94;;;32.62;39.87
49102;BME280;34913;47.520;19.186;2023-06-22T08:24:09;100173.03;;;32.68;41.40
49102;BME280;34913;47.520;19.186;2023-06-22T08:26:34;100181.84;;;32.70;41.70
49102;BME280;34913;47.520;19.186;2023-06-22T08:29:04;100180.50;;;32.72;41.35
49102;BME280;34913;47.520;19.186;2023-06-22T08:31:31;100168.34;;;32.58;42.68
49102;BME280;34913;47.520;19.186;2023-06-22T08:33:59;100180.66;;;32.50;39.87
49102;BME280;34913;47.520;19.186;2023-06-22T08:36:25;100170.28;;;32.68;42.23
49102;BME280;34913;47.520;19.186;2023-06-22T08:38:51;100173.06;;;32.78;41.72
49102;BME280;34913;47.520;19.186;2023-06-22T08:41:17;100168.97;;;32.81;43.19
49102;BME280;34913;47.520;19.186;2023-06-22T08:43:43;100173.38;;;32.82;43.12
49102;BME280;34913;47.520;19.186;2023-06-22T08:46:11;100175.97;;;33.03;40.33
49102;BME280;34913;47.520;19.186;2023-06-22T08:48:37;100170.75;;;33.12;39.92
49102;BME280;34913;47.520;19.186;2023-06-22T08:51:02;100161.63;;;33.01;39.68
49102;BME280;34913;47.520;19.186;2023-06-22T08:53:28;100157.50;;;32.99;43.20
49102;BME280;34913;47.520;19.186;2023-06-22T08:55:54;100157.00;;;33.12;41.09
49102;BME280;34913;47.520;19.186;2023-06-22T08:58:19;100154.00;;;33.24;38.69
49102;BME280;34913;47.520;19.186;2023-06-22T09:00:46;100161.44;;;33.33;39.76
49102;BME280;34913;47.520;19.186;2023-06-22T09:03:12;100149.59;;;33.28;39.80
49102;BME280;34913;47.520;19.186;2023-06-22T09:05:37;100148.50;;;33.29;41.13
49102;BME280;34913;47.520;19.186;2023-06-22T09:08:03;100149.88;;;33.37;40.99
49102;BME280;34913;47.520;19.186;2023-06-22T09:10:28;100152.41;;;33.43;41.74
49102;BME280;34913;47.520;19.186;2023-06-22T09:12:54;100141.13;;;33.50;40.86
49102;BME280;34913;47.520;19.186;2023-06-22T09:15:19;100144.72;;;33.60;39.90
49102;BME280;34913;47.520;19.186;2023-06-22T09:17:45;100143.03;;;33.70;40.60
49102;BME280;34913;47.520;19.186;2023-06-22T09:20:11;100134.78;;;33.70;40.60
49102;BME280;34913;47.520;19.186;2023-06-22T09:22:37;100128.19;;;33.66;41.46
49102;BME280;34913;47.520;19.186;2023-06-22T09:25:04;100128.94;;;33.25;39.20
49102;BME280;34913;47.520;19.186;2023-06-22T09:27:30;100124.06;;;33.38;41.55
49102;BME280;34913;47.520;19.186;2023-06-22T09:29:55;100126.28;;;33.51;42.77
49102;BME280;34913;47.520;19.186;2023-06-22T09:32:20;100130.38;;;33.64;42.73
49102;BME280;34913;47.520;19.186;2023-06-22T09:34:46;100124.06;;;33.73;41.50
49102;BME280;34913;47.520;19.186;2023-06-22T09:37:11;100120.22;;;33.74;41.14
49102;BME280;34913;47.520;19.186;2023-06-22T09:39:37;100118.00;;;33.61;38.00
49102;BME280;34913;47.520;19.186;2023-06-22T09:42:02;100121.88;;;33.60;38.95
49102;BME280;34913;47.520;19.186;2023-06-22T09:44:28;100122.13;;;33.53;42.18
49102;BME280;34913;47.520;19.186;2023-06-22T09:46:53;100120.50;;;33.52;41.78
49102;BME280;34913;47.520;19.186;2023-06-22T09:49:19;100116.06;;;33.62;41.49
49102;BME280;34913;47.520;19.186;2023-06-22T09:51:44;100125.16;;;33.62;41.26
49102;BME280;34913;47.520;19.186;2023-06-22T09:54:09;100118.81;;;33.72;42.65
49102;BME280;34913;47.520;19.186;2023-06-22T09:56:35;100127.34;;;33.85;39.36
49102;BME280;34913;47.520;19.186;2023-06-22T09:59:02;100124.06;;;33.68;42.87
49102;BME280;34913;47.520;19.186;2023-06-22T10:01:28;100117.16;;;33.40;41.75
49102;BME280;34913;47.520;19.186;2023-06-22T10:03:53;100126.81;;;33.53;41.91
49102;BME280;34913;47.520;19.186;2023-06-22T10:06:22;100126.25;;;33.61;41.21
49102;BME280;34913;47.520;19.186;2023-06-22T10:08:49;100115.81;;;33.53;41.49
49102;BME280;34913;47.520;19.186;2023-06-22T10:11:15;100112.22;;;33.52;39.99
49102;BME280;34913;47.520;19.186;2023-06-22T10:13:40;100109.75;;;33.66;43.00
49102;BME280;34913;47.520;19.186;2023-06-22T10:16:06;100119.34;;;33.79;39.91
49102;BME280;34913;47.520;19.186;2023-06-22T10:18:32;100121.31;;;33.73;39.99
49102;BME280;34913;47.520;19.186;2023-06-22T10:20:57;100115.50;;;33.34;42.14
49102;BME280;34913;47.520;19.186;2023-06-22T10:23:23;100111.97;;;33.44;40.76
49102;BME280;34913;47.520;19.186;2023-06-22T10:25:48;100110.56;;;33.41;41.32
49102;BME280;34913;47.520;19.186;2023-06-22T10:28:14;100121.59;;;33.67;40.41
49102;BME280;34913;47.520;19.186;2023-06-22T10:30:40;100113.31;;;33.72;40.87
49102;BME280;34913;47.520;19.186;2023-06-22T10:33:10;100109.19;;;33.84;42.15
49102;BME280;34913;47.520;19.186;2023-06-22T10:35:36;100109.47;;;33.93;41.47
49102;BME280;34913;47.520;19.186;2023-06-22T10:38:05;100103.13;;;33.98;40.91
49102;BME280;34913;47.520;19.186;2023-06-22T10:40:30;100105.03;;;34.07;40.58
49102;BME280;34913;47.520;19.186;2023-06-22T10:42:56;100112.78;;;33.59;41.25
49102;BME280;34913;47.520;19.186;2023-06-22T10:45:21;100107.81;;;33.77;42.25
49102;BME280;34913;47.520;19.186;2023-06-22T10:47:46;100101.16;;;34.08;41.00
49102;BME280;34913;47.520;19.186;2023-06-22T10:50:13;100100.06;;;34.04;40.31
49102;BME280;34913;47.520;19.186;2023-06-22T10:52:39;100098.38;;;34.19;39.87
49102;BME280;34913;47.520;19.186;2023-06-22T10:55:05;100101.34;;;34.37;39.66
49102;BME280;34913;47.520;19.186;2023-06-22T10:57:31;100101.34;;;34.37;40.67
49102;BME280;34913;47.520;19.186;2023-06-22T10:59:56;100097.22;;;34.40;40.11
49102;BME280;34913;47.520;19.186;2023-06-22T11:02:21;100094.53;;;34.14;40.42
49102;BME280;34913;47.520;19.186;2023-06-22T11:04:47;100097.00;;;34.11;41.08
49102;BME280;34913;47.520;19.186;2023-06-22T11:07:13;100089.00;;;34.25;41.79
49102;BME280;34913;47.520;19.186;2023-06-22T11:09:38;100095.56;;;34.39;42.38
49102;BME280;34913;47.520;19.186;2023-06-22T11:12:05;100099.78;;;34.16;39.99
49102;BME280;34913;47.520;19.186;2023-06-22T11:14:31;100099.56;;;33.92;40.04
49102;BME280;34913;47.520;19.186;2023-06-22T11:16:56;100096.00;;;33.61;41.27
49102;BME280;34913;47.520;19.186;2023-06-22T11:19:22;100089.63;;;33.86;39.52
49102;BME280;34913;47.520;19.186;2023-06-22T11:21:47;100080.00;;;33.63;41.27
49102;BME280;34913;47.520;19.186;2023-06-22T11:24:13;100084.72;;;33.37;42.52
49102;BME280;34913;47.520;19.186;2023-06-22T11:26:38;100087.69;;;33.25;41.89
49102;BME280;34913;47.520;19.186;2023-06-22T11:29:03;100084.13;;;33.25;43.11
49102;BME280;34913;47.520;19.186;2023-06-22T11:31:33;100088.78;;;33.09;42.07
49102;BME280;34913;47.520;19.186;2023-06-22T11:33:58;100081.94;;;33.27;42.69
49102;BME280;34913;47.520;19.186;2023-06-22T11:36:25;100085.25;;;33.59;41.20
49102;BME280;34913;47.520;19.186;2023-06-22T11:38:50;100081.97;;;33.57;42.13
49102;BME280;34913;47.520;19.186;2023-06-22T11:41:16;100078.34;;;33.77;42.61
49102;BME280;34913;47.520;19.186;2023-06-22T11:43:42;100083.56;;;33.94;41.76
49102;BME280;34913;47.520;19.186;2023-06-22T11:46:07;100082.47;;;34.00;40.54
49102;BME280;34913;47.520;19.186;2023-06-22T11:48:33;100074.78;;;33.92;40.04
49102;BME280;34913;47.520;19.186;2023-06-22T11:50:58;100070.34;;;33.81;40.01
49102;BME280;34913;47.520;19.186;2023-06-22T11:53:25;100069.81;;;33.74;39.37
49102;BME280;34913;47.520;19.186;2023-06-22T11:55:52;100062.97;;;33.61;41.13
49102;BME280;34913;47.520;19.186;2023-06-22T11:58:19;100059.09;;;33.57;40.29
49102;BME280;34913;47.520;19.186;2023-06-22T12:00:44;100063.75;;;33.77;40.36
49102;BME280;34913;47.520;19.186;2023-06-22T12:03:10;100062.41;;;33.90;40.47
49102;BME280;34913;47.520;19.186;2023-06-22T12:05:36;100064.31;;;33.64;39.68
49102;BME280;34913;47.520;19.186;2023-06-22T12:08:02;100057.72;;;33.29;39.89
49102;BME280;34913;47.520;19.186;2023-06-22T12:10:27;100064.88;;;33.40;39.92
49102;BME280;34913;47.520;19.186;2023-06-22T12:12:56;100051.66;;;33.17;40.74
49102;BME280;34913;47.520;19.186;2023-06-22T12:15:23;100055.22;;;33.02;40.88
49102;BME280;34913;47.520;19.186;2023-06-22T12:17:48;100054.88;;;32.78;42.36
49102;BME280;34913;47.520;19.186;2023-06-22T12:20:14;100054.25;;;32.45;42.03
49102;BME280;34913;47.520;19.186;2023-06-22T12:22:40;100047.09;;;32.44;42.71
49102;BME280;34913;47.520;19.186;2023-06-22T12:25:07;100044.34;;;32.39;42.36
49102;BME280;34913;47.520;19.186;2023-06-22T12:27:32;100035.44;;;32.22;42.16
49102;BME280;34913;47.520;19.186;2023-06-22T12:29:58;100028.69;;;32.40;42.75
49102;BME280;34913;47.520;19.186;2023-06-22T12:32:23;100024.88;;;32.61;43.73
49102;BME280;34913;47.520;19.186;2023-06-22T12:34:49;100021.06;;;32.67;40.32
49102;BME280;34913;47.520;19.186;2023-06-22T12:37:14;100008.44;;;32.82;42.05